Aérodrome :
LOGIN :

S'inscrire | Disclaimer

   EN    FR    IT 

 










Légende :    VFR   VFR Marginal   IFR   IFR Intensif   IFR Très Intensif
Visi : 
Plafond : 
>= 8 km
>= 3000ft
5 à 8 km
1000 à 3000 ft
1500m à 5 km
500 à 1000 ft
800 à 1500m
200 à 500 ft
< 800m
< 200 ft
Symboles :   Orages  Brouillard  Fortes neiges  Fortes précipitations  Vent > 20 kt
SIGMETs :   Divers  Orages  Givrage  Turbulence  Onde Orograph.  Cendres Volcan.







- Altitude de l'aérodrome : 1234 ft
- Code IATA : LUX


ELLX - Luxembourg Findel

DERNIER METAR :
  • 130420Z 23007KT 2200 -RA BR SCT002 BKN004 09/09 Q1022 NOSIG

METARs EXPIRÉS :
  • 130350Z 21006KT 180V240 1800 BR SCT001 BKN003 09/09 Q1021 NOSIG
  • 130320Z 21006KT 190V250 1600 -DZRA BR SCT001 BKN003 09/09 Q1021 NOSIG
  • 130250Z 18006KT 1200 R24/P2000N -RA SCT001 BKN003 09/09 Q1021 NOSIG
  • 130220Z AUTO 19005KT 150V240 4400 -RA BR FEW003/// BKN004/// BKN006/// 09/09 Q1021 NOSIG
  • 130150Z AUTO 20005KT 3800 -RA BR SCT001/// BKN003/// OVC005/// 09/09 Q1021 NOSIG

TAF TAF ELLX
Valide du 13 à 00h jusqu'au 14 à 06h UTC


122300Z 1300/1406 18006KT 5000 RA BKN015
TEMPO 1300/1303 5000 -RA BKN020
TEMPO 1303/1307 1500 -DZ BKN004
BECMG 1307/1309 7000 SCT004 BKN008
BECMG 1309/1311 9999 BKN015
BECMG 1314/1316 SCT025
BECMG 1400/1403 3000 BR SCT005
ATIS : +352 4798 27300
Météo : +352 4798 27010 / 27050
Pas de NOTAMs connus pour ce terrain.



MET'MAP, la Météo Aéronautique d'un coup d'oeil ! - Copyright ORBIFLY Décembre 2007 - Disclaimer

ORBIFLY MET'MAP TEAM :

Programmation & Développement : Alexandra Zaïnal
Conception & Développement : Baudouin d'Aumeries
Co-Programmation & Développement : Marc-Olivier Méhu
Soutien technique & logistique : Manuel Goepfert

Contact : metmap@orbifly.com




SOURCES & CREDITS :

   NOAA